sensor_id;sensor_type;location;lat;lon;timestamp;P1;durP1;ratioP1;P2;durP2;ratioP2
60722;SDS011;46574;52.818;6.516;2023-01-01T00:01:07;35.10;;;25.27;;
60722;SDS011;46574;52.818;6.516;2023-01-01T00:03:33;40.40;;;29.48;;
60722;SDS011;46574;52.818;6.516;2023-01-01T00:06:03;48.17;;;37.45;;
60722;SDS011;46574;52.818;6.516;2023-01-01T00:08:33;45.55;;;34.53;;
60722;SDS011;46574;52.818;6.516;2023-01-01T00:11:00;56.58;;;45.47;;
60722;SDS011;46574;52.818;6.516;2023-01-01T00:13:30;44.42;;;34.75;;
60722;SDS011;46574;52.818;6.516;2023-01-01T00:16:02;50.80;;;41.30;;
60722;SDS011;46574;52.818;6.516;2023-01-01T00:18:31;37.90;;;31.67;;
60722;SDS011;46574;52.818;6.516;2023-01-01T00:21:03;41.20;;;33.20;;
60722;SDS011;46574;52.818;6.516;2023-01-01T00:23:29;35.03;;;28.00;;
60722;SDS011;46574;52.818;6.516;2023-01-01T00:25:55;52.53;;;44.85;;
60722;SDS011;46574;52.818;6.516;2023-01-01T00:28:21;37.05;;;28.75;;
60722;SDS011;46574;52.818;6.516;2023-01-01T00:30:46;40.90;;;31.60;;
60722;SDS011;46574;52.818;6.516;2023-01-01T00:33:12;30.23;;;24.98;;
60722;SDS011;46574;52.818;6.516;2023-01-01T00:35:37;33.97;;;27.77;;
60722;SDS011;46574;52.818;6.516;2023-01-01T00:38:03;38.83;;;29.65;;
60722;SDS011;46574;52.818;6.516;2023-01-01T00:40:29;29.35;;;21.63;;
60722;SDS011;46574;52.818;6.516;2023-01-01T00:42:54;27.65;;;20.67;;
60722;SDS011;46574;52.818;6.516;2023-01-01T00:45:20;27.63;;;21.10;;
60722;SDS011;46574;52.818;6.516;2023-01-01T00:47:46;25.45;;;19.05;;
60722;SDS011;46574;52.818;6.516;2023-01-01T00:50:12;25.02;;;18.85;;
60722;SDS011;46574;52.818;6.516;2023-01-01T00:52:37;24.52;;;19.35;;
60722;SDS011;46574;52.818;6.516;2023-01-01T00:55:03;21.30;;;16.48;;
60722;SDS011;46574;52.818;6.516;2023-01-01T00:57:29;26.13;;;18.27;;
60722;SDS011;46574;52.818;6.516;2023-01-01T00:59:55;21.70;;;16.55;;
60722;SDS011;46574;52.818;6.516;2023-01-01T01:02:20;19.48;;;16.75;;
60722;SDS011;46574;52.818;6.516;2023-01-01T01:04:46;22.70;;;18.00;;
60722;SDS011;46574;52.818;6.516;2023-01-01T01:07:11;23.88;;;19.25;;
60722;SDS011;46574;52.818;6.516;2023-01-01T01:09:37;29.38;;;20.02;;
60722;SDS011;46574;52.818;6.516;2023-01-01T01:12:03;27.80;;;20.70;;
60722;SDS011;46574;52.818;6.516;2023-01-01T01:14:29;28.58;;;20.27;;
60722;SDS011;46574;52.818;6.516;2023-01-01T01:16:54;28.85;;;21.60;;
60722;SDS011;46574;52.818;6.516;2023-01-01T01:19:20;29.17;;;20.30;;
60722;SDS011;46574;52.818;6.516;2023-01-01T01:21:48;23.30;;;18.38;;
60722;SDS011;46574;52.818;6.516;2023-01-01T01:24:15;26.60;;;19.17;;
60722;SDS011;46574;52.818;6.516;2023-01-01T01:26:40;23.95;;;18.67;;
60722;SDS011;46574;52.818;6.516;2023-01-01T01:29:06;21.23;;;17.77;;
60722;SDS011;46574;52.818;6.516;2023-01-01T01:31:32;23.55;;;18.75;;
60722;SDS011;46574;52.818;6.516;2023-01-01T01:33:59;25.25;;;18.02;;
60722;SDS011;46574;52.818;6.516;2023-01-01T01:36:25;24.63;;;18.55;;
60722;SDS011;46574;52.818;6.516;2023-01-01T01:38:51;25.15;;;17.15;;
60722;SDS011;46574;52.818;6.516;2023-01-01T01:41:19;22.92;;;17.63;;
60722;SDS011;46574;52.818;6.516;2023-01-01T01:43:50;22.98;;;15.57;;
60722;SDS011;46574;52.818;6.516;2023-01-01T01:46:20;23.58;;;15.95;;
60722;SDS011;46574;52.818;6.516;2023-01-01T01:48:56;22.02;;;17.85;;
60722;SDS011;46574;52.818;6.516;2023-01-01T01:51:27;23.85;;;16.17;;
60722;SDS011;46574;52.818;6.516;2023-01-01T01:54:01;23.15;;;16.50;;
60722;SDS011;46574;52.818;6.516;2023-01-01T01:59:23;24.38;;;17.85;;
60722;SDS011;46574;52.818;6.516;2023-01-01T02:01:53;24.13;;;18.23;;
60722;SDS011;46574;52.818;6.516;2023-01-01T02:04:19;23.67;;;17.45;;
60722;SDS011;46574;52.818;6.516;2023-01-01T02:06:45;23.92;;;17.63;;
60722;SDS011;46574;52.818;6.516;2023-01-01T02:09:11;21.48;;;16.38;;
60722;SDS011;46574;52.818;6.516;2023-01-01T02:11:37;26.05;;;18.38;;
60722;SDS011;46574;52.818;6.516;2023-01-01T02:14:03;22.55;;;16.92;;
60722;SDS011;46574;52.818;6.516;2023-01-01T02:19:36;21.95;;;15.63;;
60722;SDS011;46574;52.818;6.516;2023-01-01T02:22:25;19.45;;;14.35;;
60722;SDS011;46574;52.818;6.516;2023-01-01T02:25:24;20.58;;;15.15;;
60722;SDS011;46574;52.818;6.516;2023-01-01T02:28:47;16.80;;;12.85;;
60722;SDS011;46574;52.818;6.516;2023-01-01T02:31:05;18.50;;;12.88;;
60722;SDS011;46574;52.818;6.516;2023-01-01T02:33:32;19.77;;;11.70;;
60722;SDS011;46574;52.818;6.516;2023-01-01T02:36:00;18.70;;;12.85;;
60722;SDS011;46574;52.818;6.516;2023-01-01T02:38:29;18.95;;;11.82;;
60722;SDS011;46574;52.818;6.516;2023-01-01T02:40:57;15.82;;;11.10;;
60722;SDS011;46574;52.818;6.516;2023-01-01T02:43:33;15.82;;;10.93;;
60722;SDS011;46574;52.818;6.516;2023-01-01T02:45:59;15.00;;;10.13;;
60722;SDS011;46574;52.818;6.516;2023-01-01T02:48:35;17.80;;;11.25;;
60722;SDS011;46574;52.818;6.516;2023-01-01T02:54:24;17.02;;;10.05;;
60722;SDS011;46574;52.818;6.516;2023-01-01T02:59:38;15.15;;;9.25;;
60722;SDS011;46574;52.818;6.516;2023-01-01T03:08:14;15.57;;;6.93;;
60722;SDS011;46574;52.818;6.516;2023-01-01T03:11:07;12.95;;;6.78;;
60722;SDS011;46574;52.818;6.516;2023-01-01T03:13:42;11.38;;;5.25;;
60722;SDS011;46574;52.818;6.516;2023-01-01T03:19:07;7.22;;;4.22;;
60722;SDS011;46574;52.818;6.516;2023-01-01T03:24:20;10.90;;;4.28;;
60722;SDS011;46574;52.818;6.516;2023-01-01T03:26:51;7.30;;;4.38;;
60722;SDS011;46574;52.818;6.516;2023-01-01T03:29:21;8.60;;;4.35;;
60722;SDS011;46574;52.818;6.516;2023-01-01T03:31:48;6.57;;;3.60;;
60722;SDS011;46574;52.818;6.516;2023-01-01T03:34:19;7.28;;;4.05;;
60722;SDS011;46574;52.818;6.516;2023-01-01T03:36:50;9.57;;;3.83;;
60722;SDS011;46574;52.818;6.516;2023-01-01T03:39:24;8.23;;;3.17;;
60722;SDS011;46574;52.818;6.516;2023-01-01T03:42:03;8.65;;;3.58;;
60722;SDS011;46574;52.818;6.516;2023-01-01T03:44:45;13.70;;;4.55;;
60722;SDS011;46574;52.818;6.516;2023-01-01T03:47:14;8.85;;;4.05;;
60722;SDS011;46574;52.818;6.516;2023-01-01T03:49:41;9.57;;;3.55;;
60722;SDS011;46574;52.818;6.516;2023-01-01T03:54:51;6.97;;;3.20;;
60722;SDS011;46574;52.818;6.516;2023-01-01T03:57:44;6.63;;;3.10;;
60722;SDS011;46574;52.818;6.516;2023-01-01T04:00:16;8.25;;;3.17;;
60722;SDS011;46574;52.818;6.516;2023-01-01T04:05:12;6.75;;;2.97;;
60722;SDS011;46574;52.818;6.516;2023-01-01T04:07:39;8.13;;;3.20;;
60722;SDS011;46574;52.818;6.516;2023-01-01T04:10:06;4.82;;;3.05;;
60722;SDS011;46574;52.818;6.516;2023-01-01T04:15:20;7.10;;;2.92;;
60722;SDS011;46574;52.818;6.516;2023-01-01T04:17:47;6.15;;;3.28;;
60722;SDS011;46574;52.818;6.516;2023-01-01T04:20:12;8.52;;;2.80;;
60722;SDS011;46574;52.818;6.516;2023-01-01T04:22:38;8.27;;;3.00;;
60722;SDS011;46574;52.818;6.516;2023-01-01T04:25:04;7.05;;;3.50;;
60722;SDS011;46574;52.818;6.516;2023-01-01T04:27:31;6.57;;;2.90;;
60722;SDS011;46574;52.818;6.516;2023-01-01T04:29:57;5.13;;;2.80;;
60722;SDS011;46574;52.818;6.516;2023-01-01T04:32:23;7.78;;;2.80;;
60722;SDS011;46574;52.818;6.516;2023-01-01T04:34:49;7.50;;;2.78;;
60722;SDS011;46574;52.818;6.516;2023-01-01T04:37:14;9.75;;;3.85;;
60722;SDS011;46574;52.818;6.516;2023-01-01T04:39:40;6.35;;;2.78;;
60722;SDS011;46574;52.818;6.516;2023-01-01T04:42:06;7.97;;;2.80;;
60722;SDS011;46574;52.818;6.516;2023-01-01T04:44:32;6.85;;;2.63;;
60722;SDS011;46574;52.818;6.516;2023-01-01T04:46:57;6.70;;;2.75;;
60722;SDS011;46574;52.818;6.516;2023-01-01T04:49:23;8.45;;;2.80;;
60722;SDS011;46574;52.818;6.516;2023-01-01T04:51:48;6.43;;;2.78;;
60722;SDS011;46574;52.818;6.516;2023-01-01T04:54:14;6.50;;;2.55;;
60722;SDS011;46574;52.818;6.516;2023-01-01T04:56:40;4.63;;;2.55;;
60722;SDS011;46574;52.818;6.516;2023-01-01T04:59:05;6.75;;;2.70;;
60722;SDS011;46574;52.818;6.516;2023-01-01T05:01:31;4.32;;;1.95;;
60722;SDS011;46574;52.818;6.516;2023-01-01T05:03:57;5.90;;;2.35;;
60722;SDS011;46574;52.818;6.516;2023-01-01T05:06:23;7.20;;;2.33;;
60722;SDS011;46574;52.818;6.516;2023-01-01T05:08:51;7.30;;;2.10;;
60722;SDS011;46574;52.818;6.516;2023-01-01T05:11:27;5.05;;;2.15;;
60722;SDS011;46574;52.818;6.516;2023-01-01T05:13:55;3.40;;;1.85;;
60722;SDS011;46574;52.818;6.516;2023-01-01T05:16:24;5.65;;;1.90;;
60722;SDS011;46574;52.818;6.516;2023-01-01T05:18:52;7.88;;;2.72;;
60722;SDS011;46574;52.818;6.516;2023-01-01T05:21:18;5.05;;;2.20;;
60722;SDS011;46574;52.818;6.516;2023-01-01T05:23:46;5.35;;;2.17;;
60722;SDS011;46574;52.818;6.516;2023-01-01T05:28:39;5.18;;;1.70;;
60722;SDS011;46574;52.818;6.516;2023-01-01T05:31:06;5.18;;;1.77;;
60722;SDS011;46574;52.818;6.516;2023-01-01T05:33:33;5.30;;;1.80;;
60722;SDS011;46574;52.818;6.516;2023-01-01T05:35:59;4.97;;;1.70;;
60722;SDS011;46574;52.818;6.516;2023-01-01T05:38:26;4.40;;;1.95;;
60722;SDS011;46574;52.818;6.516;2023-01-01T05:40:52;5.93;;;1.60;;
60722;SDS011;46574;52.818;6.516;2023-01-01T05:43:17;5.60;;;1.70;;
60722;SDS011;46574;52.818;6.516;2023-01-01T05:45:43;3.50;;;1.55;;
60722;SDS011;46574;52.818;6.516;2023-01-01T05:48:09;5.32;;;1.63;;
60722;SDS011;46574;52.818;6.516;2023-01-01T05:50:35;5.22;;;1.60;;
60722;SDS011;46574;52.818;6.516;2023-01-01T05:53:01;4.38;;;1.50;;
60722;SDS011;46574;52.818;6.516;2023-01-01T05:55:27;4.68;;;1.50;;
60722;SDS011;46574;52.818;6.516;2023-01-01T05:57:52;3.67;;;1.35;;
60722;SDS011;46574;52.818;6.516;2023-01-01T06:00:18;2.88;;;1.60;;
60722;SDS011;46574;52.818;6.516;2023-01-01T06:02:44;3.90;;;1.45;;
60722;SDS011;46574;52.818;6.516;2023-01-01T06:05:10;4.25;;;1.50;;
60722;SDS011;46574;52.818;6.516;2023-01-01T06:07:35;4.93;;;1.60;;
60722;SDS011;46574;52.818;6.516;2023-01-01T06:10:01;3.72;;;1.33;;
60722;SDS011;46574;52.818;6.516;2023-01-01T06:12:27;3.53;;;1.42;;
60722;SDS011;46574;52.818;6.516;2023-01-01T06:14:53;4.60;;;1.50;;
60722;SDS011;46574;52.818;6.516;2023-01-01T06:17:18;4.13;;;1.45;;
60722;SDS011;46574;52.818;6.516;2023-01-01T06:19:44;4.57;;;1.58;;
60722;SDS011;46574;52.818;6.516;2023-01-01T06:22:10;3.60;;;1.42;;
60722;SDS011;46574;52.818;6.516;2023-01-01T06:24:35;4.15;;;1.10;;
60722;SDS011;46574;52.818;6.516;2023-01-01T06:27:01;4.80;;;1.50;;
60722;SDS011;46574;52.818;6.516;2023-01-01T06:29:26;6.43;;;2.53;;
60722;SDS011;46574;52.818;6.516;2023-01-01T06:31:52;4.75;;;1.40;;
60722;SDS011;46574;52.818;6.516;2023-01-01T06:34:18;3.35;;;1.45;;
60722;SDS011;46574;52.818;6.516;2023-01-01T06:36:43;6.32;;;2.08;;
60722;SDS011;46574;52.818;6.516;2023-01-01T06:39:09;4.32;;;1.45;;
60722;SDS011;46574;52.818;6.516;2023-01-01T06:41:35;4.43;;;1.52;;
60722;SDS011;46574;52.818;6.516;2023-01-01T06:44:00;4.47;;;1.63;;
60722;SDS011;46574;52.818;6.516;2023-01-01T06:46:27;5.65;;;1.88;;
60722;SDS011;46574;52.818;6.516;2023-01-01T06:48:58;5.25;;;2.28;;
60722;SDS011;46574;52.818;6.516;2023-01-01T06:54:04;5.20;;;1.52;;
60722;SDS011;46574;52.818;6.516;2023-01-01T06:56:30;5.78;;;1.80;;
60722;SDS011;46574;52.818;6.516;2023-01-01T06:58:56;5.55;;;1.92;;
60722;SDS011;46574;52.818;6.516;2023-01-01T07:01:23;5.45;;;2.20;;
60722;SDS011;46574;52.818;6.516;2023-01-01T07:03:52;3.83;;;1.80;;
60722;SDS011;46574;52.818;6.516;2023-01-01T07:06:19;5.72;;;1.75;;
60722;SDS011;46574;52.818;6.516;2023-01-01T07:08:44;4.07;;;1.67;;
60722;SDS011;46574;52.818;6.516;2023-01-01T07:11:10;9.05;;;2.30;;
60722;SDS011;46574;52.818;6.516;2023-01-01T07:13:36;4.60;;;1.63;;
60722;SDS011;46574;52.818;6.516;2023-01-01T07:16:01;3.90;;;2.33;;
60722;SDS011;46574;52.818;6.516;2023-01-01T07:18:27;5.85;;;1.88;;
60722;SDS011;46574;52.818;6.516;2023-01-01T07:20:57;5.90;;;1.95;;
60722;SDS011;46574;52.818;6.516;2023-01-01T07:23:25;9.10;;;1.98;;
60722;SDS011;46574;52.818;6.516;2023-01-01T07:25:52;7.32;;;1.90;;
60722;SDS011;46574;52.818;6.516;2023-01-01T07:28:19;6.38;;;2.17;;
60722;SDS011;46574;52.818;6.516;2023-01-01T07:30:46;4.82;;;1.63;;
60722;SDS011;46574;52.818;6.516;2023-01-01T07:33:13;7.30;;;2.10;;
60722;SDS011;46574;52.818;6.516;2023-01-01T07:35:40;7.40;;;2.10;;
60722;SDS011;46574;52.818;6.516;2023-01-01T07:38:06;4.95;;;1.80;;
60722;SDS011;46574;52.818;6.516;2023-01-01T07:40:32;6.97;;;1.77;;
60722;SDS011;46574;52.818;6.516;2023-01-01T07:42:58;6.25;;;1.88;;
60722;SDS011;46574;52.818;6.516;2023-01-01T07:45:24;6.50;;;1.90;;
60722;SDS011;46574;52.818;6.516;2023-01-01T07:47:51;4.97;;;1.55;;
60722;SDS011;46574;52.818;6.516;2023-01-01T07:50:19;5.03;;;1.77;;
60722;SDS011;46574;52.818;6.516;2023-01-01T07:52:45;6.07;;;1.70;;
60722;SDS011;46574;52.818;6.516;2023-01-01T07:55:11;4.28;;;1.40;;
60722;SDS011;46574;52.818;6.516;2023-01-01T07:57:39;6.82;;;1.95;;
60722;SDS011;46574;52.818;6.516;2023-01-01T08:00:05;5.13;;;1.63;;
60722;SDS011;46574;52.818;6.516;2023-01-01T08:02:32;6.65;;;1.60;;
60722;SDS011;46574;52.818;6.516;2023-01-01T08:04:57;8.23;;;2.00;;
60722;SDS011;46574;52.818;6.516;2023-01-01T08:07:23;7.57;;;1.48;;
60722;SDS011;46574;52.818;6.516;2023-01-01T08:09:49;5.07;;;1.60;;
60722;SDS011;46574;52.818;6.516;2023-01-01T08:12:14;6.43;;;1.65;;
60722;SDS011;46574;52.818;6.516;2023-01-01T08:14:40;7.95;;;1.60;;
60722;SDS011;46574;52.818;6.516;2023-01-01T08:17:05;5.93;;;1.80;;
60722;SDS011;46574;52.818;6.516;2023-01-01T08:19:31;5.53;;;1.80;;
60722;SDS011;46574;52.818;6.516;2023-01-01T08:21:57;4.47;;;1.60;;
60722;SDS011;46574;52.818;6.516;2023-01-01T08:24:22;5.35;;;1.90;;
60722;SDS011;46574;52.818;6.516;2023-01-01T08:26:48;5.75;;;1.77;;
60722;SDS011;46574;52.818;6.516;2023-01-01T08:29:15;6.55;;;2.17;;
60722;SDS011;46574;52.818;6.516;2023-01-01T08:31:41;7.00;;;1.90;;
60722;SDS011;46574;52.818;6.516;2023-01-01T08:34:07;5.68;;;1.85;;
60722;SDS011;46574;52.818;6.516;2023-01-01T08:36:33;4.03;;;1.35;;
60722;SDS011;46574;52.818;6.516;2023-01-01T08:38:59;5.85;;;1.77;;
60722;SDS011;46574;52.818;6.516;2023-01-01T08:41:25;6.70;;;1.83;;
60722;SDS011;46574;52.818;6.516;2023-01-01T08:43:50;6.18;;;1.42;;
60722;SDS011;46574;52.818;6.516;2023-01-01T08:46:16;5.82;;;1.70;;
60722;SDS011;46574;52.818;6.516;2023-01-01T08:48:42;8.80;;;1.90;;
60722;SDS011;46574;52.818;6.516;2023-01-01T08:51:08;6.22;;;2.25;;
60722;SDS011;46574;52.818;6.516;2023-01-01T08:53:34;9.18;;;1.80;;
60722;SDS011;46574;52.818;6.516;2023-01-01T08:56:04;6.15;;;1.60;;
60722;SDS011;46574;52.818;6.516;2023-01-01T08:58:32;8.82;;;2.10;;
60722;SDS011;46574;52.818;6.516;2023-01-01T09:01:02;6.50;;;1.83;;
60722;SDS011;46574;52.818;6.516;2023-01-01T09:03:28;7.10;;;1.52;;
60722;SDS011;46574;52.818;6.516;2023-01-01T09:05:54;8.48;;;2.10;;
60722;SDS011;46574;52.818;6.516;2023-01-01T09:08:20;7.63;;;2.45;;
60722;SDS011;46574;52.818;6.516;2023-01-01T09:10:46;7.75;;;1.67;;
60722;SDS011;46574;52.818;6.516;2023-01-01T09:13:13;5.95;;;1.75;;
60722;SDS011;46574;52.818;6.516;2023-01-01T09:15:41;7.78;;;1.80;;
60722;SDS011;46574;52.818;6.516;2023-01-01T09:18:07;6.80;;;2.10;;
60722;SDS011;46574;52.818;6.516;2023-01-01T09:20:33;7.07;;;1.92;;
60722;SDS011;46574;52.818;6.516;2023-01-01T09:23:00;6.93;;;2.22;;
60722;SDS011;46574;52.818;6.516;2023-01-01T09:25:25;7.78;;;1.80;;
60722;SDS011;46574;52.818;6.516;2023-01-01T09:27:57;7.68;;;1.80;;
60722;SDS011;46574;52.818;6.516;2023-01-01T09:30:28;8.02;;;2.00;;
60722;SDS011;46574;52.818;6.516;2023-01-01T09:32:53;9.77;;;1.83;;
60722;SDS011;46574;52.818;6.516;2023-01-01T09:35:19;6.07;;;1.50;;
60722;SDS011;46574;52.818;6.516;2023-01-01T09:37:45;8.95;;;2.08;;
60722;SDS011;46574;52.818;6.516;2023-01-01T09:40:20;7.68;;;1.90;;
60722;SDS011;46574;52.818;6.516;2023-01-01T09:42:48;8.30;;;1.70;;
60722;SDS011;46574;52.818;6.516;2023-01-01T09:45:20;6.03;;;2.10;;
60722;SDS011;46574;52.818;6.516;2023-01-01T09:47:50;8.27;;;2.00;;
60722;SDS011;46574;52.818;6.516;2023-01-01T09:50:35;7.60;;;1.97;;
60722;SDS011;46574;52.818;6.516;2023-01-01T09:53:05;6.68;;;2.10;;
60722;SDS011;46574;52.818;6.516;2023-01-01T09:55:58;7.50;;;1.80;;
60722;SDS011;46574;52.818;6.516;2023-01-01T09:58:26;8.23;;;2.05;;
60722;SDS011;46574;52.818;6.516;2023-01-01T10:01:19;8.27;;;1.60;;
60722;SDS011;46574;52.818;6.516;2023-01-01T10:12:13;9.55;;;2.00;;
60722;SDS011;46574;52.818;6.516;2023-01-01T10:14:42;7.55;;;2.15;;
60722;SDS011;46574;52.818;6.516;2023-01-01T10:17:31;9.23;;;2.03;;
60722;SDS011;46574;52.818;6.516;2023-01-01T10:20:16;5.55;;;1.58;;
60722;SDS011;46574;52.818;6.516;2023-01-01T10:22:50;7.40;;;2.08;;
60722;SDS011;46574;52.818;6.516;2023-01-01T10:25:26;8.25;;;2.25;;
60722;SDS011;46574;52.818;6.516;2023-01-01T10:27:58;7.53;;;1.80;;
60722;SDS011;46574;52.818;6.516;2023-01-01T10:30:35;5.38;;;1.95;;
60722;SDS011;46574;52.818;6.516;2023-01-01T10:33:01;8.10;;;2.33;;
60722;SDS011;46574;52.818;6.516;2023-01-01T10:35:35;8.02;;;1.75;;
60722;SDS011;46574;52.818;6.516;2023-01-01T10:38:04;5.72;;;1.73;;
60722;SDS011;46574;52.818;6.516;2023-01-01T10:40:30;9.90;;;2.05;;
60722;SDS011;46574;52.818;6.516;2023-01-01T10:42:57;5.85;;;1.95;;
60722;SDS011;46574;52.818;6.516;2023-01-01T10:45:31;7.00;;;1.67;;
60722;SDS011;46574;52.818;6.516;2023-01-01T10:48:09;7.63;;;2.38;;
60722;SDS011;46574;52.818;6.516;2023-01-01T10:51:18;7.15;;;1.60;;
60722;SDS011;46574;52.818;6.516;2023-01-01T10:59:00;6.93;;;1.70;;
60722;SDS011;46574;52.818;6.516;2023-01-01T11:01:30;7.80;;;1.95;;
60722;SDS011;46574;52.818;6.516;2023-01-01T11:06:33;7.70;;;1.90;;
60722;SDS011;46574;52.818;6.516;2023-01-01T11:09:03;7.53;;;1.75;;
60722;SDS011;46574;52.818;6.516;2023-01-01T11:11:40;8.48;;;2.05;;
60722;SDS011;46574;52.818;6.516;2023-01-01T11:14:24;8.60;;;1.80;;
60722;SDS011;46574;52.818;6.516;2023-01-01T11:16:53;8.55;;;2.10;;
60722;SDS011;46574;52.818;6.516;2023-01-01T11:19:22;8.55;;;1.90;;
60722;SDS011;46574;52.818;6.516;2023-01-01T11:21:52;8.75;;;1.95;;
60722;SDS011;46574;52.818;6.516;2023-01-01T11:26:47;5.53;;;1.63;;
60722;SDS011;46574;52.818;6.516;2023-01-01T11:31:39;6.55;;;1.55;;
60722;SDS011;46574;52.818;6.516;2023-01-01T11:34:15;8.15;;;1.75;;
60722;SDS011;46574;52.818;6.516;2023-01-01T11:37:20;9.85;;;1.75;;
60722;SDS011;46574;52.818;6.516;2023-01-01T11:39:50;10.32;;;1.88;;
60722;SDS011;46574;52.818;6.516;2023-01-01T11:42:19;7.97;;;2.07;;
60722;SDS011;46574;52.818;6.516;2023-01-01T11:50:05;8.02;;;1.90;;
60722;SDS011;46574;52.818;6.516;2023-01-01T11:52:45;9.90;;;2.50;;
60722;SDS011;46574;52.818;6.516;2023-01-01T11:57:48;9.13;;;1.80;;
60722;SDS011;46574;52.818;6.516;2023-01-01T12:00:27;9.18;;;2.20;;
60722;SDS011;46574;52.818;6.516;2023-01-01T12:03:00;8.02;;;2.33;;
60722;SDS011;46574;52.818;6.516;2023-01-01T12:05:48;7.50;;;2.25;;
60722;SDS011;46574;52.818;6.516;2023-01-01T12:08:26;9.30;;;2.22;;
60722;SDS011;46574;52.818;6.516;2023-01-01T12:11:02;8.00;;;2.08;;
60722;SDS011;46574;52.818;6.516;2023-01-01T12:13:51;8.23;;;2.72;;
60722;SDS011;46574;52.818;6.516;2023-01-01T12:16:26;8.50;;;2.15;;
60722;SDS011;46574;52.818;6.516;2023-01-01T12:19:17;9.30;;;2.22;;
60722;SDS011;46574;52.818;6.516;2023-01-01T12:21:53;6.65;;;1.55;;
60722;SDS011;46574;52.818;6.516;2023-01-01T12:24:22;7.13;;;2.00;;
60722;SDS011;46574;52.818;6.516;2023-01-01T12:27:02;7.03;;;2.13;;
60722;SDS011;46574;52.818;6.516;2023-01-01T12:32:25;4.43;;;1.88;;
60722;SDS011;46574;52.818;6.516;2023-01-01T12:43:01;8.50;;;1.90;;
60722;SDS011;46574;52.818;6.516;2023-01-01T12:48:11;9.40;;;2.00;;
60722;SDS011;46574;52.818;6.516;2023-01-01T12:51:05;7.53;;;2.10;;
60722;SDS011;46574;52.818;6.516;2023-01-01T12:56:34;7.97;;;2.13;;
60722;SDS011;46574;52.818;6.516;2023-01-01T12:59:12;7.10;;;2.20;;
60722;SDS011;46574;52.818;6.516;2023-01-01T13:01:42;7.07;;;1.92;;
60722;SDS011;46574;52.818;6.516;2023-01-01T13:04:16;7.68;;;2.17;;
60722;SDS011;46574;52.818;6.516;2023-01-01T13:06:51;8.77;;;2.45;;
60722;SDS011;46574;52.818;6.516;2023-01-01T13:09:28;10.75;;;2.42;;
60722;SDS011;46574;52.818;6.516;2023-01-01T13:12:03;11.07;;;2.35;;
60722;SDS011;46574;52.818;6.516;2023-01-01T13:14:38;9.45;;;2.42;;
60722;SDS011;46574;52.818;6.516;2023-01-01T13:17:04;9.88;;;2.28;;
60722;SDS011;46574;52.818;6.516;2023-01-01T13:19:45;11.40;;;2.60;;
60722;SDS011;46574;52.818;6.516;2023-01-01T13:22:44;8.25;;;2.60;;
60722;SDS011;46574;52.818;6.516;2023-01-01T13:30:44;8.50;;;2.88;;
60722;SDS011;46574;52.818;6.516;2023-01-01T13:52:00;8.23;;;2.97;;
60722;SDS011;46574;52.818;6.516;2023-01-01T13:54:55;8.93;;;2.70;;
60722;SDS011;46574;52.818;6.516;2023-01-01T13:57:58;9.20;;;3.30;;
60722;SDS011;46574;52.818;6.516;2023-01-01T14:03:22;8.20;;;3.10;;
60722;SDS011;46574;52.818;6.516;2023-01-01T14:05:55;9.90;;;2.47;;
60722;SDS011;46574;52.818;6.516;2023-01-01T14:08:31;13.15;;;3.55;;
60722;SDS011;46574;52.818;6.516;2023-01-01T14:11:01;14.32;;;4.43;;
60722;SDS011;46574;52.818;6.516;2023-01-01T14:13:40;13.88;;;3.83;;
60722;SDS011;46574;52.818;6.516;2023-01-01T14:16:07;9.93;;;3.05;;
60722;SDS011;46574;52.818;6.516;2023-01-01T14:21:14;8.23;;;2.67;;
60722;SDS011;46574;52.818;6.516;2023-01-01T14:23:43;8.05;;;2.90;;
60722;SDS011;46574;52.818;6.516;2023-01-01T14:26:12;9.43;;;3.58;;
60722;SDS011;46574;52.818;6.516;2023-01-01T14:28:40;11.45;;;2.92;;
60722;SDS011;46574;52.818;6.516;2023-01-01T14:31:11;8.23;;;3.25;;
60722;SDS011;46574;52.818;6.516;2023-01-01T14:33:40;9.15;;;3.38;;
60722;SDS011;46574;52.818;6.516;2023-01-01T14:36:25;9.13;;;3.08;;
60722;SDS011;46574;52.818;6.516;2023-01-01T14:38:54;12.00;;;3.30;;
60722;SDS011;46574;52.818;6.516;2023-01-01T14:44:01;9.10;;;3.38;;
60722;SDS011;46574;52.818;6.516;2023-01-01T14:46:30;16.55;;;6.10;;
60722;SDS011;46574;52.818;6.516;2023-01-01T14:48:56;11.23;;;5.30;;
60722;SDS011;46574;52.818;6.516;2023-01-01T14:51:28;9.38;;;3.55;;
60722;SDS011;46574;52.818;6.516;2023-01-01T14:53:56;9.68;;;3.53;;
60722;SDS011;46574;52.818;6.516;2023-01-01T14:56:27;11.32;;;2.95;;
60722;SDS011;46574;52.818;6.516;2023-01-01T14:58:53;11.68;;;4.00;;
60722;SDS011;46574;52.818;6.516;2023-01-01T15:01:29;7.95;;;3.03;;
60722;SDS011;46574;52.818;6.516;2023-01-01T15:03:58;10.77;;;3.17;;
60722;SDS011;46574;52.818;6.516;2023-01-01T15:06:27;7.35;;;3.00;;
60722;SDS011;46574;52.818;6.516;2023-01-01T15:08:53;9.90;;;2.83;;
60722;SDS011;46574;52.818;6.516;2023-01-01T15:11:19;8.32;;;3.22;;
60722;SDS011;46574;52.818;6.516;2023-01-01T15:13:59;9.70;;;3.30;;
60722;SDS011;46574;52.818;6.516;2023-01-01T15:16:26;12.32;;;3.13;;
60722;SDS011;46574;52.818;6.516;2023-01-01T15:18:52;9.02;;;3.25;;
60722;SDS011;46574;52.818;6.516;2023-01-01T15:21:25;9.98;;;3.03;;
60722;SDS011;46574;52.818;6.516;2023-01-01T15:24:08;11.70;;;3.40;;
60722;SDS011;46574;52.818;6.516;2023-01-01T15:26:43;11.23;;;3.72;;
60722;SDS011;46574;52.818;6.516;2023-01-01T15:29:36;10.27;;;4.43;;
60722;SDS011;46574;52.818;6.516;2023-01-01T15:32:08;12.60;;;3.72;;
60722;SDS011;46574;52.818;6.516;2023-01-01T15:34:55;8.18;;;3.30;;
60722;SDS011;46574;52.818;6.516;2023-01-01T15:37:35;10.45;;;3.08;;
60722;SDS011;46574;52.818;6.516;2023-01-01T15:42:43;7.22;;;2.40;;
60722;SDS011;46574;52.818;6.516;2023-01-01T15:45:30;8.63;;;3.13;;
60722;SDS011;46574;52.818;6.516;2023-01-01T15:50:57;14.60;;;4.50;;
60722;SDS011;46574;52.818;6.516;2023-01-01T15:53:47;10.20;;;3.85;;
60722;SDS011;46574;52.818;6.516;2023-01-01T15:56:25;12.60;;;3.88;;
60722;SDS011;46574;52.818;6.516;2023-01-01T15:58:58;12.30;;;3.40;;
60722;SDS011;46574;52.818;6.516;2023-01-01T16:01:38;12.32;;;3.00;;
60722;SDS011;46574;52.818;6.516;2023-01-01T16:04:09;9.20;;;2.78;;
60722;SDS011;46574;52.818;6.516;2023-01-01T16:06:46;12.88;;;3.22;;
60722;SDS011;46574;52.818;6.516;2023-01-01T16:09:14;8.40;;;3.13;;
60722;SDS011;46574;52.818;6.516;2023-01-01T16:11:41;12.52;;;3.15;;
60722;SDS011;46574;52.818;6.516;2023-01-01T16:14:08;13.45;;;3.33;;
60722;SDS011;46574;52.818;6.516;2023-01-01T16:16:34;12.88;;;4.18;;
60722;SDS011;46574;52.818;6.516;2023-01-01T16:19:02;12.70;;;5.05;;
60722;SDS011;46574;52.818;6.516;2023-01-01T16:21:28;10.70;;;3.63;;
60722;SDS011;46574;52.818;6.516;2023-01-01T16:23:57;7.28;;;3.15;;
60722;SDS011;46574;52.818;6.516;2023-01-01T16:26:23;13.48;;;7.68;;
60722;SDS011;46574;52.818;6.516;2023-01-01T16:28:49;12.65;;;5.25;;
60722;SDS011;46574;52.818;6.516;2023-01-01T16:31:19;11.68;;;3.42;;
60722;SDS011;46574;52.818;6.516;2023-01-01T16:33:53;10.18;;;4.20;;
60722;SDS011;46574;52.818;6.516;2023-01-01T16:36:20;8.88;;;3.58;;
60722;SDS011;46574;52.818;6.516;2023-01-01T16:38:46;9.50;;;3.45;;
60722;SDS011;46574;52.818;6.516;2023-01-01T16:41:13;10.35;;;4.28;;
60722;SDS011;46574;52.818;6.516;2023-01-01T16:43:43;10.07;;;4.38;;
60722;SDS011;46574;52.818;6.516;2023-01-01T16:46:10;11.57;;;4.63;;
60722;SDS011;46574;52.818;6.516;2023-01-01T16:48:36;11.10;;;5.10;;
60722;SDS011;46574;52.818;6.516;2023-01-01T16:51:02;16.23;;;7.13;;
60722;SDS011;46574;52.818;6.516;2023-01-01T16:53:29;12.68;;;7.45;;
60722;SDS011;46574;52.818;6.516;2023-01-01T16:55:55;13.40;;;5.40;;
60722;SDS011;46574;52.818;6.516;2023-01-01T16:58:21;14.45;;;6.47;;